Terminal Aerodrome Forecast
Issued by NWS

Home | Current Version | Previous Version | Text Only | Print | Product List | Glossary On
Versions: 1 2 3 4 5 6 7 8 9 10 11 12
000
FTUS46 KOTX 261120
TAFMWH
TAF
KMWH 261120Z 2612/2712 01005KT P6SM SKC
     FM262000 22007KT P6SM FEW150 SCT200
     FM270300 18006KT P6SM BKN150
     FM270600 22004KT P6SM BKN200=

USA.gov is the U.S. government's official web portal to all federal, state and local government web resources and services.